Terminal Aerodrome Forecast
Issued by NWS Jackson, MS

Home | Current Version | Previous Version | Text Only | Print | Product List | Glossary On
Versions: 1 2 3 4 5 6 7 8 9 10 11 12 13
460
FTUS44 KJAN 260539
TAFHBG
TAF
KHBG 260539Z 2606/2706 17004KT 5SM BR BKN006
     FM260800 17004KT 1SM BR VCSH BKN004 BKN060
     FM261400 19003KT 4SM BR BKN015 BKN250
     FM261600 21007KT P6SM SCT050 BKN250=

USA.gov is the U.S. government's official web portal to all federal, state and local government web resources and services.